Friday, January 19, 2018, 2:26 AM EST
Back to Local

KLBE, Latrobe / Westmorland

Location: Latrobe, PA, United States Lat: 40.283
Local Time: 2:26 AM EST ( 7:26 GMT) Lon: -79.4
Time Zone: US/Eastern Elev: 1184 ft

Show me the last for .
Show Decoded

2018-01-19 02:15 METAR KLBE 190715Z AUTO 20016KT 10SM CLR M04/M12 A3010 RMK AO2 =
2018-01-19 01:55 METAR KLBE 190655Z AUTO 21015KT 10SM CLR M04/M12 A3011 RMK AO2 =
2018-01-19 01:35 METAR KLBE 190635Z AUTO 21013G21KT 10SM CLR M04/M12 A3010 RMK AO2 =
2018-01-19 01:15 METAR KLBE 190615Z AUTO 20017KT 10SM CLR M04/M12 A3010 RMK AO2 =
2018-01-19 00:55 METAR KLBE 190555Z AUTO 20017G22KT 10SM CLR M04/M12 A3011 RMK AO2 =
2018-01-19 00:35 METAR KLBE 190535Z AUTO 20017G21KT 10SM CLR M04/M12 A3011 RMK AO2 =
2018-01-19 00:15 METAR KLBE 190515Z AUTO 20015KT 10SM CLR M04/M12 A3012 RMK AO2 =
2018-01-18 23:55 METAR KLBE 190455Z AUTO 20016G22KT 10SM CLR M04/M12 A3013 RMK AO2 =
2018-01-18 23:35 METAR KLBE 190435Z AUTO 20017G23KT 10SM CLR M04/M12 A3013 RMK AO2 =
2018-01-18 23:15 METAR KLBE 190415Z AUTO 20018KT 10SM CLR M04/M12 A3013 RMK AO2 =
2018-01-18 22:55 METAR KLBE 190355Z AUTO 20016KT 10SM CLR M04/M12 A3014 RMK AO2 =
2018-01-18 22:35 METAR KLBE 190335Z AUTO 20016G23KT 10SM CLR M05/M12 A3014 RMK AO2 =
2018-01-18 22:15 METAR KLBE 190315Z AUTO 20015KT 10SM CLR M05/M12 A3015 RMK AO2 =
2018-01-18 21:47 METAR KLBE 190247Z 22015G25KT 20SM SKC M05/M12 A3016 =
2018-01-18 20:47 METAR KLBE 190147Z 21010G20KT 20SM SKC M05/M12 A3017 =
2018-01-18 19:47 METAR KLBE 190047Z 21012G20KT 20SM SKC M04/M12 A3015 =
2018-01-18 18:47 METAR KLBE 182347Z 23010KT 20SM SKC M04/M12 A3014 =
2018-01-18 17:47 METAR KLBE 182247Z 22010KT 20SM SKC M04/M14 A3013 =
2018-01-18 16:47 METAR KLBE 182147Z 23013KT 20SM SKC M04/M12 A3014 =
2018-01-18 15:50 METAR KLBE 182050Z 23013G23KT 10SM SKC M03/M12 A3013 =
2018-01-18 14:50 METAR KLBE 181950Z 22015G25KT 20SM SKC M04/M12 A3013 =
2018-01-18 13:50 METAR KLBE 181850Z 25020G30KT 20SM SKC M04/M12 A3015 =
2018-01-18 12:50 METAR KLBE 181750Z 25014G24KT 15SM SKC M05/M13 A3017 =
2018-01-18 11:50 METAR KLBE 181650Z 23017G22KT 10SM SKC M07/M13 A3021 =
2018-01-18 10:50 METAR KLBE 181550Z 23019G25KT 10KT SKC M08/M13 A3024 =
2018-01-18 09:50 METAR KLBE 181450Z 22020G24KT 7SM SKC M10/M13 A3023 =
2018-01-18 08:50 METAR KLBE 181350Z 24015G25KT 10SM SKC M11/M14 A3022 =
2018-01-18 07:50 METAR KLBE 181250Z 24015G25KT 10SM SKC M12/M14 A3023 =
2018-01-18 06:50 METAR KLBE 181150Z 24015G25KT 10SM SKC M12/M14 A3023 =
2018-01-18 05:55 METAR KLBE 181055Z AUTO 20013KT 10SM CLR M13/M15 A3025 RMK AO2 =
2018-01-18 05:35 METAR KLBE 181035Z AUTO 20013KT 10SM CLR M13/M15 A3026 RMK AO2 =
2018-01-18 05:15 METAR KLBE 181015Z AUTO 20013KT 10SM -SN FEW014 M13/M15 A3027 RMK AO2 =
2018-01-18 04:55 METAR KLBE 180955Z AUTO 20012KT 10SM FEW014 M13/M15 A3027 RMK AO2 =
2018-01-18 04:35 METAR KLBE 180935Z AUTO 20013KT 10SM -SN FEW014 M13/M15 A3027 RMK AO2 =
2018-01-18 04:15 METAR KLBE 180915Z AUTO 21012G18KT 10SM -SN BKN014 M13/M15 A3027 RMK AO2 =
2018-01-18 03:55 METAR KLBE 180855Z AUTO 20015KT 10SM -SN SCT014 M13/M15 A3028 RMK AO2 =
2018-01-18 03:35 METAR KLBE 180835Z AUTO 20013G18KT 10SM -SN FEW016 M13/M15 A3028 RMK AO2 =
2018-01-18 03:15 METAR KLBE 180815Z AUTO 20012KT 10SM FEW016 M13/M15 A3029 RMK AO2 =
2018-01-18 02:55 METAR KLBE 180755Z AUTO 20011KT 10SM SCT016 M13/M15 A3029 RMK AO2 =
2018-01-18 02:35 METAR KLBE 180735Z AUTO 21013KT 10SM BKN016 M13/M15 A3030 RMK AO2 =

Support USWX by starting your Amazon purchase here.